Weather observations for the past three days for
Liberal, Liberal Municipal Airport
| Date | Time (cdt) | Wind (kph) | Vis. (km) | Weather | Sky Cond. | Temperature (ºC) | Relative Humidity | Wind Chill (°C) | Heat Index (°C) | Pressure | Precipitation (cm) | ||||||
|---|---|---|---|---|---|---|---|---|---|---|---|---|---|---|---|---|---|
| Air | Dwpt | 6 hour | altimeter (cm) | sea level (mb) | 1 hr | 3 hr | 6 hr | ||||||||||
| Max. | Min. | ||||||||||||||||
| 05 | 09:56 | SE 15 | 16.09 | Mostly Cloudy | BKN120 | 26.1 | 20.6 | 72% | 28 | 76.2 | 1012.6 | ||||||
| 05 | 08:56 | SE 11 | 16.09 | Fair | CLR | 25.6 | 20.6 | 74% | 27 | 76.17 | 1012.4 | ||||||
| 05 | 07:56 | SE 13 | 16.09 | Fair | CLR | 23.3 | 20.6 | 85% | 76.12 | 1011.7 | |||||||
| 05 | 06:56 | SE 20 | 16.09 | Fair | CLR | 23.3 | 20.6 | 23.9 | 21.1 | 85% | 76.1 | 1010.6 | |||||
| 05 | 05:56 | SW 17 | 16.09 | A Few Clouds | FEW120 | 23.3 | 18.9 | 76% | 76.07 | 1009.9 | |||||||
| 05 | 04:56 | SW 15 | 16.09 | Overcast | FEW060 SCT075 OVC100 | 23.3 | 18.9 | 76% | 76.1 | 1010.2 | |||||||
| 05 | 03:56 | NW 15 | 16.09 | Light Rain | OVC095 | 22.8 | 18.9 | 79% | 76.17 | 1011.4 | |||||||
| 05 | 02:56 | NW 17 | 16.09 | Light Rain | FEW047 BKN070 OVC090 | 23.3 | 18.9 | 76% | 76.3 | 1013.0 | |||||||
| 05 | 01:56 | W 13 | 16.09 | Thunderstorm Light Rain | BKN021 BKN033 OVC095 | 22.2 | 20.6 | 91% | 76.38 | 1014.2 | |||||||
| 05 | 00:56 | W 33 G 46 | 16.09 | Thunderstorm Light Rain and Breezy | BKN075 BKN110 | 21.7 | 19.4 | 35 | 21.1 | 87% | 76.35 | 1014.1 | |||||
| 04 | 23:56 | E 13 | 16.09 | Overcast | SCT060 BKN090 OVC110 | 24.4 | 19.4 | 74% | 25 | 76.2 | 1011.9 | ||||||
| 04 | 22:56 | NE 41 | 16.09 | Thunderstorm Light Rain and Breezy | SCT036 BKN075 OVC090 | 23.9 | 17.8 | 69% | 25 | 76.2 | 1012.0 | ||||||
| 04 | 21:56 | NE 19 | 16.09 | Thunderstorm Heavy Rain | FEW037 SCT050 OVC080 | 21.7 | 20 | 90% | 76.43 | 1015.6 | |||||||
| 04 | 20:56 | NW 54 G 65 | 12.87 | Thunderstorm Heavy Rain and Windy | FEW080 OVC095 | 21.1 | 19.4 | 90% | 76.17 | 1012.7 | |||||||
| 04 | 19:56 | N 33 G 48 | 14.48 | Thunderstorm in Vicinity and Breezy | BKN100 | 23.9 | 19.4 | 76% | 24 | 76.02 | 1010.5 | ||||||
| 04 | 18:56 | SE 19 G 30 | 16.09 | Fair | CLR | 35 | 16.1 | 38.3 | 35 | 32% | 35 | 75.9 | 1008.1 | ||||
| 04 | 17:56 | SE 24 G 31 | 16.09 | A Few Clouds | FEW100 | 37.2 | 17.2 | 31% | 38 | 75.9 | 1007.6 | ||||||
| 04 | 16:56 | SE 19 G 33 | 16.09 | Fair | CLR | 38.3 | 16.7 | 28% | 39 | 75.9 | 1007.4 | ||||||
| 04 | 15:56 | S 20 | 16.09 | Fair | CLR | 38.3 | 17.2 | 29% | 40 | 75.92 | 1007.9 | ||||||
| 04 | 14:56 | S 19 | 16.09 | Fair | CLR | 37.8 | 17.2 | 30% | 39 | 76 | 1008.8 | ||||||
| 04 | 13:56 | SE 19 | 16.09 | Fair | CLR | 36.7 | 18.3 | 34% | 38 | 76.05 | 1009.6 | ||||||
| 04 | 12:56 | S 17 | 16.09 | Fair | CLR | 35 | 18.9 | 35 | 20.6 | 39% | 37 | 76.1 | 1010.5 | ||||
| 04 | 11:56 | S 15 | 16.09 | Fair | CLR | 32.8 | 20 | 47% | 35 | 76.12 | 1010.8 | ||||||
| 04 | 10:56 | S 19 | 16.09 | Fair | CLR | 30 | 20.6 | 57% | 32 | 76.12 | 1011.1 | ||||||
| 04 | 09:56 | S 19 | 16.09 | Fair | CLR | 27.2 | 21.1 | 69% | 29 | 76.12 | 1011.2 | ||||||
| 04 | 08:56 | S 11 | 16.09 | Fair | CLR | 24.4 | 20 | 77% | 25 | 76.15 | 1011.3 | ||||||
| 04 | 07:56 | SE 7 | 16.09 | Fair | CLR | 21.1 | 18.9 | 87% | 76.1 | 1010.9 | |||||||
| 04 | 06:56 | SE 9 | 16.09 | Fair | CLR | 20.6 | 17.2 | 24.4 | 20 | 81% | 76.05 | 1010.0 | |||||
| 04 | 05:56 | SE 11 | 16.09 | Fair | CLR | 21.1 | 17.2 | 79% | 76.05 | 1009.9 | |||||||
| 04 | 04:56 | S 9 | 16.09 | Fair | CLR | 22.2 | 17.2 | 73% | 76.05 | 1009.6 | |||||||
| 04 | 03:56 | S 13 | 16.09 | Fair | CLR | 22.2 | 17.2 | 73% | 76.02 | 1009.5 | |||||||
| 04 | 02:56 | S 13 | 16.09 | Fair | CLR | 23.9 | 17.2 | 66% | 25 | 76.02 | 1009.5 | ||||||
| 04 | 01:56 | S 17 | 16.09 | Fair | CLR | 24.4 | 16.1 | 60% | 26 | 76.02 | 1009.4 | ||||||
| 04 | 00:56 | S 15 | 16.09 | Fair | CLR | 22.8 | 15 | 36.7 | 22.8 | 62% | 76 | 1009.4 | |||||
| 03 | 23:56 | S 20 | 16.09 | Fair | CLR | 25.6 | 15 | 52% | 26 | 75.97 | 1009.1 | ||||||
| 03 | 22:56 | S 13 | 16.09 | Fair | CLR | 25.6 | 15.6 | 54% | 26 | 75.97 | 1008.9 | ||||||
| 03 | 21:56 | S 15 | 16.09 | Fair | CLR | 27.8 | 15 | 46% | 28 | 75.95 | 1008.7 | ||||||
| 03 | 20:56 | S 20 | 16.09 | Fair | CLR | 30 | 15 | 40% | 30 | 75.9 | 1007.9 | ||||||
| 03 | 19:56 | S 30 G 44 | 16.09 | Fair | CLR | 33.3 | 15 | 33% | 33 | 75.82 | 1007.1 | ||||||
| 03 | 18:56 | SE 19 | 16.09 | Fair | CLR | 37.2 | 10.6 | 37.8 | 32.8 | 20% | 36 | 75.82 | 1006.5 | ||||
| 03 | 17:56 | SE 11 | 16.09 | Fair | CLR | 37.8 | 12.8 | 22% | 37 | 75.82 | 1006.5 | ||||||
| 03 | 16:56 | SE 19 | 16.09 | Fair | CLR | 37.8 | 13.3 | 23% | 37 | 75.84 | 1006.7 | ||||||
| 03 | 15:56 | SE 9 | 16.09 | Fair | CLR | 37.2 | 9.4 | 18% | 35 | 75.9 | 1007.4 | ||||||
| 03 | 14:56 | S 9 | 16.09 | Fair | CLR | 36.1 | 12.2 | 24% | 35 | 75.97 | 1008.4 | ||||||
| 03 | 13:56 | SE 13 | 16.09 | Fair | CLR | 33.3 | 16.1 | 36% | 33 | 76 | 1009.2 | ||||||
| 03 | 12:56 | S 11 | 16.09 | Fair | CLR | 32.8 | 16.1 | 32.8 | 21.7 | 37% | 33 | 76.07 | 1010.1 | ||||
| 03 | 11:56 | S 17 | 16.09 | Fair | CLR | 30 | 16.1 | 43% | 30 | 76.1 | 1010.8 | ||||||
| 03 | 10:56 | S 20 | 16.09 | Fair | CLR | 30 | 16.1 | 43% | 30 | 76.07 | 1010.4 | ||||||
| 03 | 09:56 | SW 28 | 16.09 | Fair | CLR | 27.8 | 16.1 | 49% | 28 | 76.07 | 1010.6 | ||||||
| 03 | 08:56 | SW 20 | 16.09 | Fair | CLR | 25.6 | 17.2 | 60% | 27 | 76.07 | 1010.5 | ||||||
| 03 | 07:56 | S 17 | 16.09 | Fair | CLR | 22.2 | 16.7 | 71% | 76.05 | 1010.1 | |||||||
| 03 | 06:56 | S 17 | 16.09 | Fair | CLR | 22.2 | 16.1 | 26.1 | 22.2 | 68% | 76.02 | 1009.6 | |||||
| 03 | 05:56 | S 20 | 16.09 | Fair | CLR | 23.3 | 16.1 | 64% | 76.05 | 1009.8 | |||||||
| 03 | 04:56 | S 24 | 16.09 | Fair | CLR | 25 | 16.1 | 58% | 26 | 76.05 | 1009.4 | ||||||
| 03 | 03:56 | S 28 | 16.09 | Fair | CLR | 25.6 | 16.1 | 56% | 26 | 76.05 | 1009.7 | ||||||
| 03 | 02:56 | S 28 | 16.09 | Fair | CLR | 26.1 | 15.6 | 52% | 27 | 76.05 | 1009.5 | ||||||
| 03 | 01:56 | S 22 | 16.09 | Fair | CLR | 25.6 | 14.4 | 50% | 26 | 76.05 | 1009.7 | ||||||
| 03 | 00:56 | S 20 | 16.09 | Fair | CLR | 25 | 15.6 | 34.4 | 22.8 | 56% | 26 | 76.05 | 1009.9 | ||||
| 02 | 23:56 | S 17 | 16.09 | Fair | CLR | 23.3 | 16.1 | 64% | 76.05 | 1010.0 | |||||||
| 02 | 22:56 | SE 15 | 16.09 | Fair | CLR | 25 | 16.1 | 58% | 26 | 76.05 | 1010.1 | ||||||
| 02 | 21:56 | SE 11 | 16.09 | Fair | CLR | 25 | 16.1 | 58% | 26 | 76.02 | 1009.9 | ||||||
| 02 | 20:56 | S 15 | 16.09 | Fair | CLR | 26.7 | 15.6 | 51% | 27 | 75.97 | 1009.5 | ||||||
| 02 | 19:56 | S 19 | 16.09 | Fair | CLR | 31.1 | 16.7 | 42% | 31 | 75.95 | 1009.0 | ||||||
| 02 | 18:56 | S 24 | 16.09 | Partly Cloudy | FEW060 SCT100 | 34.4 | 17.2 | 36.7 | 33.9 | 36% | 35 | 75.95 | 1008.6 | ||||
| 02 | 17:56 | S 19 | 16.09 | Partly Cloudy | SCT110 | 34.4 | 16.1 | 33% | 35 | 75.95 | 1008.6 | ||||||
| 02 | 16:56 | S 30 G 37 | 16.09 | Fair | CLR | 36.7 | 16.7 | 31% | 37 | 75.97 | 1008.7 | ||||||
| 02 | 15:56 | S 22 G 39 | 16.09 | Fair | CLR | 36.1 | 16.7 | 32% | 37 | 76.02 | 1009.4 | ||||||
| 02 | 14:56 | S 26 G 41 | 16.09 | A Few Clouds | FEW090 | 35.6 | 16.1 | 31% | 36 | 76.07 | 1010.2 | ||||||
| 02 | 13:56 | SW 26 G 35 | 16.09 | Fair | CLR | 36.1 | 16.7 | 32% | 37 | 76.12 | 1010.9 | ||||||
| 02 | 12:56 | S 24 | 16.09 | Fair | CLR | 33.9 | 16.7 | 33.9 | 21.1 | 36% | 34 | 76.23 | 1012.2 | ||||
| 02 | 11:56 | S 26 | 16.09 | Mostly Cloudy | BKN110 | 31.7 | 16.1 | 39% | 32 | 76.28 | 1012.8 | ||||||
| 02 | 10:56 | SW 22 | 16.09 | Fair | CLR | 30.6 | 16.1 | 42% | 31 | 76.28 | 1013.0 | ||||||
| Date | Time (cdt) | Wind (kph) | Vis. (km) | Weather | Sky Cond. | Air | Dwpt | Max. | Min. | Relative Humidity | Wind Chill (°C) | Heat Index (°C) | altimeter (cm) | sea level (mb) | 1 hr | 3 hr | 6 hr |
| 6 hour | |||||||||||||||||
| Temperature (ºC) | Pressure | Precipitation (cm) | |||||||||||||||